createdAt,value
2023-05-05T00:00:01.373Z,99679.66
2023-05-05T00:03:03.714Z,99678.44
2023-05-05T00:06:06.569Z,99683.13
2023-05-05T00:09:08.781Z,99682.94
2023-05-05T00:12:11.006Z,99680.06
2023-05-05T00:15:13.266Z,99683.34
2023-05-05T00:18:17.044Z,99682.72
2023-05-05T00:21:19.326Z,99683.13
2023-05-05T00:24:21.518Z,99671.88
2023-05-05T00:27:23.682Z,99680.50
2023-05-05T00:30:27.626Z,99674.34
2023-05-05T00:33:29.895Z,99670.84
2023-05-05T00:36:32.038Z,99669.41
2023-05-05T00:39:34.335Z,99665.53
2023-05-05T00:42:47.723Z,99666.56
2023-05-05T00:46:11.032Z,99668.00
2023-05-05T00:49:13.313Z,99666.13
2023-05-05T00:52:15.535Z,99671.25
2023-05-05T00:55:17.924Z,99657.72
2023-05-05T00:58:20.177Z,99666.34
2023-05-05T01:01:22.410Z,99658.56
2023-05-05T01:04:26.801Z,99659.78
2023-05-05T01:07:43.340Z,99659.16
2023-05-05T01:10:49.099Z,99660.19
2023-05-05T01:14:03.151Z,99654.47
2023-05-05T01:17:18.463Z,99653.16
2023-05-05T01:20:46.033Z,99656.25
2023-05-05T01:23:48.778Z,99657.75
2023-05-05T01:27:35.610Z,99663.06
2023-05-05T01:30:43.701Z,99663.88
2023-05-05T01:33:51.566Z,99660.41
2023-05-05T01:37:04.686Z,99668.13
2023-05-05T01:40:08.446Z,99655.00
2023-05-05T01:43:12.392Z,99657.22
2023-05-05T01:46:15.616Z,99668.06
2023-05-05T01:49:17.944Z,99657.22
2023-05-05T01:52:20.686Z,99660.84
2023-05-05T01:55:25.518Z,99660.63
2023-05-05T01:58:29.050Z,99661.25
2023-05-05T02:01:31.958Z,99660.81
2023-05-05T02:04:36.467Z,99664.25
2023-05-05T02:07:39.335Z,99664.97
2023-05-05T02:10:41.774Z,99670.19
2023-05-05T02:13:44.551Z,99669.56
2023-05-05T02:16:47.246Z,99667.13
2023-05-05T02:19:49.880Z,99658.56
2023-05-05T02:22:52.072Z,99664.09
2023-05-05T02:25:59.581Z,99665.00
2023-05-05T02:29:09.323Z,99653.00
2023-05-05T02:32:17.223Z,99658.22
2023-05-05T02:35:32.526Z,99648.69
2023-05-05T02:38:37.368Z,99665.34
2023-05-05T02:41:41.491Z,99662.31
2023-05-05T02:44:45.550Z,99662.06
2023-05-05T02:47:47.778Z,99659.66
2023-05-05T02:50:49.984Z,99652.34
2023-05-05T02:53:52.594Z,99656.63
2023-05-05T02:56:57.484Z,99655.94
2023-05-05T03:00:21.727Z,99659.28
2023-05-05T03:03:41.079Z,99657.91
2023-05-05T03:06:47.779Z,99665.16
2023-05-05T03:09:57.964Z,99661.28
2023-05-05T03:13:01.625Z,99656.22
2023-05-05T03:16:06.826Z,99660.63
2023-05-05T03:19:11.446Z,99652.72
2023-05-05T03:22:13.711Z,99654.38
2023-05-05T03:25:15.878Z,99661.81
2023-05-05T03:28:18.097Z,99664.22
2023-05-05T03:31:20.310Z,99665.41
2023-05-05T03:34:22.518Z,99670.97
2023-05-05T03:37:24.772Z,99664.31
2023-05-05T03:40:36.184Z,99660.88
2023-05-05T03:43:42.848Z,99658.53
2023-05-05T03:46:44.999Z,99658.91
2023-05-05T03:49:47.143Z,99649.91
2023-05-05T03:52:49.315Z,99658.59
2023-05-05T03:55:52.448Z,99665.81
2023-05-05T03:58:54.615Z,99667.00
2023-05-05T04:01:56.940Z,99660.25
2023-05-05T04:04:59.225Z,99665.41
2023-05-05T04:08:01.512Z,99673.34
2023-05-05T04:11:03.677Z,99667.25
2023-05-05T04:14:05.848Z,99681.69
2023-05-05T04:17:08.014Z,99686.44
2023-05-05T04:20:10.540Z,99681.00
2023-05-05T04:23:12.982Z,99678.94
2023-05-05T04:26:15.168Z,99671.75
2023-05-05T04:29:17.723Z,99676.62
2023-05-05T04:32:19.998Z,99681.66
2023-05-05T04:35:22.451Z,99678.66
2023-05-05T04:38:24.749Z,99681.66
2023-05-05T04:41:28.250Z,99689.06
2023-05-05T04:44:32.433Z,99695.44
2023-05-05T04:47:38.764Z,99696.87
2023-05-05T04:50:40.992Z,99702.19
2023-05-05T04:53:43.211Z,99698.66
2023-05-05T04:56:45.368Z,99697.16
2023-05-05T04:59:47.561Z,99699.28
2023-05-05T05:02:49.784Z,99706.16
2023-05-05T05:05:51.974Z,99715.41
2023-05-05T05:08:54.162Z,99720.31
2023-05-05T05:12:00.942Z,99717.84
2023-05-05T05:15:03.365Z,99710.25
2023-05-05T05:18:05.824Z,99718.09
2023-05-05T05:21:08.460Z,99719.59
2023-05-05T05:24:11.594Z,99708.97
2023-05-05T05:27:13.816Z,99710.84
2023-05-05T05:30:16.241Z,99714.22
2023-05-05T05:33:18.919Z,99707.94
2023-05-05T05:36:21.066Z,99710.22
2023-05-05T05:39:23.324Z,99720.41
2023-05-05T05:42:25.900Z,99722.59
2023-05-05T05:45:28.070Z,99718.94
2023-05-05T05:48:30.338Z,99733.63
2023-05-05T05:51:32.528Z,99730.72
2023-05-05T05:54:35.659Z,99731.06
2023-05-05T05:57:37.851Z,99741.37
2023-05-05T06:00:40.043Z,99739.31
2023-05-05T06:03:42.318Z,99744.25
2023-05-05T06:06:44.592Z,99742.81
2023-05-05T06:09:47.208Z,99744.50
2023-05-05T06:12:49.478Z,99738.91
2023-05-05T06:15:51.747Z,99742.75
2023-05-05T06:18:53.987Z,99747.97
2023-05-05T06:21:56.304Z,99746.78
2023-05-05T06:24:58.505Z,99740.91
2023-05-05T06:28:00.706Z,99740.03
2023-05-05T06:31:02.914Z,99738.97
2023-05-05T06:34:05.107Z,99741.37
2023-05-05T06:37:07.291Z,99737.59
2023-05-05T06:40:10.583Z,99732.47
2023-05-05T06:43:12.912Z,99733.47
2023-05-05T06:46:15.234Z,99726.28
2023-05-05T06:49:17.508Z,99732.88
2023-05-05T06:52:19.672Z,99722.88
2023-05-05T06:55:23.424Z,99731.53
2023-05-05T06:58:25.612Z,99725.84
2023-05-05T07:01:27.891Z,99728.94
2023-05-05T07:04:30.058Z,99724.03
2023-05-05T07:07:32.630Z,99724.09
2023-05-05T07:10:35.101Z,99722.59
2023-05-05T07:13:37.305Z,99731.78
2023-05-05T07:16:39.665Z,99730.66
2023-05-05T07:19:41.918Z,99729.19
2023-05-05T07:22:44.153Z,99736.03
2023-05-05T07:25:46.370Z,99720.13
2023-05-05T07:28:48.525Z,99718.84
2023-05-05T07:31:51.001Z,99724.56
2023-05-05T07:34:53.215Z,99720.38
2023-05-05T07:37:55.654Z,99722.38
2023-05-05T07:40:57.972Z,99718.59
2023-05-05T07:44:01.220Z,99719.87
2023-05-05T07:47:03.432Z,99727.81
2023-05-05T07:50:06.602Z,99716.81
2023-05-05T07:53:14.522Z,99722.41
2023-05-05T07:56:17.346Z,99717.34
2023-05-05T07:59:19.518Z,99724.63
2023-05-05T08:02:22.053Z,99718.34
2023-05-05T08:05:24.316Z,99725.00
2023-05-05T08:08:27.058Z,99725.66
2023-05-05T08:11:29.745Z,99726.94
2023-05-05T08:14:32.927Z,99725.56
2023-05-05T08:17:46.844Z,99724.34
2023-05-05T08:20:49.335Z,99726.59
2023-05-05T08:23:51.464Z,99726.37
2023-05-05T08:26:54.516Z,99723.72
2023-05-05T08:29:57.710Z,99722.22
2023-05-05T08:33:00.623Z,99721.72
2023-05-05T08:36:02.867Z,99722.88
2023-05-05T08:39:05.063Z,99723.12
2023-05-05T08:42:07.849Z,99724.78
2023-05-05T08:45:10.988Z,99723.88
2023-05-05T08:48:13.666Z,99729.66
2023-05-05T08:51:20.222Z,99719.06
2023-05-05T08:54:23.705Z,99720.41
2023-05-05T08:57:52.029Z,99718.31
2023-05-05T09:00:54.736Z,99715.97
2023-05-05T09:03:58.964Z,99712.03
2023-05-05T09:07:01.221Z,99712.59
2023-05-05T09:10:05.154Z,99710.00
2023-05-05T09:13:07.415Z,99705.16
2023-05-05T09:16:09.867Z,99705.44
2023-05-05T09:19:12.088Z,99702.25
2023-05-05T09:22:14.279Z,99701.53
2023-05-05T09:25:18.371Z,99701.03
2023-05-05T09:28:20.574Z,99701.34
2023-05-05T09:31:22.861Z,99693.25
2023-05-05T09:34:25.109Z,99688.91
2023-05-05T09:37:31.507Z,99684.84
2023-05-05T09:40:45.870Z,99676.97
2023-05-05T09:43:52.417Z,99678.63
2023-05-05T09:46:55.657Z,99676.19
2023-05-05T09:50:00.825Z,99672.38
2023-05-05T09:53:03.660Z,99678.53
2023-05-05T09:56:06.986Z,99667.00
2023-05-05T09:59:12.264Z,99664.22
2023-05-05T10:02:14.423Z,99671.13
2023-05-05T10:05:18.061Z,99666.75
2023-05-05T10:08:25.899Z,99666.13
2023-05-05T10:11:28.141Z,99663.31
2023-05-05T10:14:31.868Z,99669.62
2023-05-05T10:17:50.811Z,99661.75
2023-05-05T10:21:03.290Z,99658.28
2023-05-05T10:24:17.087Z,99662.38
2023-05-05T10:27:20.600Z,99650.22
2023-05-05T10:30:24.509Z,99655.31
2023-05-05T10:33:35.365Z,99655.59
2023-05-05T10:36:38.539Z,99653.16
2023-05-05T10:39:41.212Z,99643.94
2023-05-05T10:42:43.628Z,99646.12
2023-05-05T10:45:46.405Z,99639.00
2023-05-05T10:49:15.477Z,99633.69
2023-05-05T10:52:28.567Z,99632.59
2023-05-05T10:55:57.491Z,99639.59
2023-05-05T10:59:00.840Z,99628.44
2023-05-05T11:02:26.938Z,99624.16
2023-05-05T11:05:29.372Z,99621.97
2023-05-05T11:08:32.694Z,99608.94
2023-05-05T11:12:03.467Z,99617.12
2023-05-05T11:15:31.780Z,99606.63
2023-05-05T11:18:38.786Z,99602.56
2023-05-05T11:21:59.971Z,99606.31
2023-05-05T11:25:44.285Z,99598.94
2023-05-05T11:29:01.137Z,99590.94
2023-05-05T11:32:16.031Z,99595.25
2023-05-05T11:35:18.290Z,99590.66
2023-05-05T11:38:26.441Z,99584.63
2023-05-05T11:41:34.149Z,99584.78
2023-05-05T11:44:36.480Z,99578.41
2023-05-05T11:47:39.052Z,99574.53
2023-05-05T11:50:41.855Z,99572.06
2023-05-05T11:53:45.437Z,99569.88
2023-05-05T11:56:54.455Z,99570.97
2023-05-05T11:59:56.665Z,99566.22
2023-05-05T12:02:59.395Z,99564.44
2023-05-05T12:06:02.355Z,99557.72
2023-05-05T12:09:04.564Z,99555.53
2023-05-05T12:12:07.417Z,99554.09
2023-05-05T12:15:10.020Z,99555.75
2023-05-05T12:18:21.631Z,99551.97
2023-05-05T12:21:23.878Z,99547.66
2023-05-05T12:24:26.075Z,99542.66
2023-05-05T12:27:28.722Z,99540.44
2023-05-05T12:30:30.987Z,99538.56
2023-05-05T12:33:39.275Z,99541.47
2023-05-05T12:36:41.793Z,99533.97
2023-05-05T12:39:44.033Z,99535.69
2023-05-05T12:42:46.445Z,99531.69
2023-05-05T12:45:49.472Z,99539.09
2023-05-05T12:49:04.953Z,99526.53
2023-05-05T12:52:07.940Z,99523.13
2023-05-05T12:55:11.208Z,99517.47
2023-05-05T12:58:13.426Z,99520.25
2023-05-05T13:01:15.690Z,99507.09
2023-05-05T13:04:18.469Z,99505.66
2023-05-05T13:07:21.856Z,99501.28
2023-05-05T13:10:25.094Z,99498.94
2023-05-05T13:13:27.275Z,99500.31
2023-05-05T13:16:30.146Z,99488.38
2023-05-05T13:19:35.472Z,99484.78
2023-05-05T13:22:37.703Z,99485.03
2023-05-05T13:25:39.901Z,99480.03
2023-05-05T13:28:42.144Z,99479.56
2023-05-05T13:31:45.137Z,99474.16
2023-05-05T13:34:47.459Z,99480.50
2023-05-05T13:37:49.676Z,99469.69
2023-05-05T13:40:51.917Z,99475.87
2023-05-05T13:43:54.189Z,99466.16
2023-05-05T13:46:56.577Z,99460.75
2023-05-05T13:49:58.896Z,99458.28
2023-05-05T13:53:01.322Z,99456.06
2023-05-05T13:56:03.786Z,99456.06
2023-05-05T13:59:05.986Z,99451.75
2023-05-05T14:02:10.827Z,99453.41
2023-05-05T14:05:13.128Z,99452.75
2023-05-05T14:08:15.468Z,99450.31
2023-05-05T14:11:18.193Z,99449.97
2023-05-05T14:14:20.420Z,99449.56
2023-05-05T14:17:22.690Z,99450.94
2023-05-05T14:20:25.131Z,99441.47
2023-05-05T14:23:27.350Z,99443.72
2023-05-05T14:26:29.526Z,99441.75
2023-05-05T14:29:31.687Z,99440.72
2023-05-05T14:32:33.828Z,99436.06
2023-05-05T14:35:36.048Z,99439.88
2023-05-05T14:38:38.213Z,99427.41
2023-05-05T14:41:40.456Z,99429.47
2023-05-05T14:44:42.676Z,99435.28
2023-05-05T14:47:45.172Z,99434.59
2023-05-05T14:50:48.063Z,99439.13
2023-05-05T14:53:50.650Z,99431.16
2023-05-05T14:56:52.880Z,99419.84
2023-05-05T14:59:55.064Z,99424.94
2023-05-05T15:02:57.413Z,99427.78
2023-05-05T15:05:59.953Z,99418.34
2023-05-05T15:09:02.217Z,99420.16
2023-05-05T15:12:04.867Z,99420.13
2023-05-05T15:15:08.611Z,99421.19
2023-05-05T15:18:11.628Z,99416.00
2023-05-05T15:21:13.816Z,99421.28
2023-05-05T15:24:16.027Z,99419.59
2023-05-05T15:27:18.668Z,99427.44
2023-05-05T15:30:20.995Z,99424.06
2023-05-05T15:33:23.266Z,99413.00
2023-05-05T15:36:25.458Z,99413.53
2023-05-05T15:39:27.760Z,99408.22
2023-05-05T15:42:32.737Z,99416.91
2023-05-05T15:45:35.204Z,99406.31
2023-05-05T15:48:37.502Z,99412.88
2023-05-05T15:51:39.935Z,99409.66
2023-05-05T15:54:42.190Z,99397.28
2023-05-05T15:57:44.468Z,99402.44
2023-05-05T16:00:46.753Z,99398.69
2023-05-05T16:03:49.027Z,99398.13
2023-05-05T16:06:51.251Z,99398.37
2023-05-05T16:09:53.516Z,99400.03
2023-05-05T16:12:56.043Z,99403.53
2023-05-05T16:15:58.320Z,99395.41
2023-05-05T16:19:00.793Z,99391.66
2023-05-05T16:22:03.075Z,99387.84
2023-05-05T16:25:06.512Z,99392.16
2023-05-05T16:28:08.835Z,99390.31
2023-05-05T16:31:13.505Z,99387.31
2023-05-05T16:34:16.498Z,99383.00
2023-05-05T16:37:18.830Z,99387.59
2023-05-05T16:40:21.161Z,99394.91
2023-05-05T16:43:23.342Z,99384.31
2023-05-05T16:46:25.745Z,99382.97
2023-05-05T16:49:28.090Z,99382.72
2023-05-05T16:52:30.350Z,99387.84
2023-05-05T16:55:32.534Z,99389.47
2023-05-05T16:58:34.736Z,99384.06
2023-05-05T17:01:37.307Z,99380.31
2023-05-05T17:04:39.725Z,99387.88
2023-05-05T17:07:42.025Z,99380.00
2023-05-05T17:10:45.120Z,99386.22
2023-05-05T17:13:47.492Z,99380.03
2023-05-05T17:16:50.678Z,99375.41
2023-05-05T17:19:52.908Z,99375.94
2023-05-05T17:22:55.157Z,99373.78
2023-05-05T17:25:58.832Z,99382.44
2023-05-05T17:29:01.421Z,99377.00
2023-05-05T17:32:03.845Z,99380.50
2023-05-05T17:35:06.856Z,99387.69
2023-05-05T17:38:09.380Z,99384.50
2023-05-05T17:41:11.563Z,99386.66
2023-05-05T17:44:13.752Z,99386.34
2023-05-05T17:47:15.963Z,99379.84
2023-05-05T17:50:18.232Z,99381.09
2023-05-05T17:53:21.105Z,99390.87
2023-05-05T17:56:23.382Z,99391.84
2023-05-05T17:59:25.893Z,99390.34
2023-05-05T18:02:28.240Z,99391.09
2023-05-05T18:05:30.835Z,99392.34
2023-05-05T18:08:32.985Z,99393.84
2023-05-05T18:11:35.960Z,99391.66
2023-05-05T18:14:38.161Z,99397.72
2023-05-05T18:17:40.797Z,99392.19
2023-05-05T18:20:43.989Z,99399.63
2023-05-05T18:23:46.325Z,99400.41
2023-05-05T18:26:50.308Z,99402.50
2023-05-05T18:29:52.662Z,99399.91
2023-05-05T18:32:54.948Z,99406.81
2023-05-05T18:35:57.799Z,99409.47
2023-05-05T18:39:00.088Z,99408.84
2023-05-05T18:42:03.231Z,99411.28
2023-05-05T18:45:06.571Z,99411.38
2023-05-05T18:48:08.898Z,99411.34
2023-05-05T18:51:11.147Z,99415.97
2023-05-05T18:54:13.337Z,99416.66
2023-05-05T18:57:15.688Z,99419.75
2023-05-05T19:00:19.848Z,99424.78
2023-05-05T19:03:22.278Z,99424.34
2023-05-05T19:06:24.518Z,99433.62
2023-05-05T19:09:27.594Z,99429.78
2023-05-05T19:12:30.272Z,99433.50
2023-05-05T19:15:32.712Z,99430.84
2023-05-05T19:18:35.007Z,99429.87
2023-05-05T19:21:37.219Z,99435.22
2023-05-05T19:24:39.469Z,99430.47
2023-05-05T19:27:41.662Z,99432.78
2023-05-05T19:30:43.936Z,99434.72
2023-05-05T19:33:46.128Z,99436.87
2023-05-05T19:36:48.417Z,99431.84
2023-05-05T19:39:51.643Z,99426.97
2023-05-05T19:42:53.915Z,99429.97
2023-05-05T19:45:56.181Z,99418.81
2023-05-05T19:48:58.394Z,99422.75
2023-05-05T19:52:00.807Z,99426.38
2023-05-05T19:55:03.962Z,99426.12
2023-05-05T19:58:06.327Z,99430.19
2023-05-05T20:01:08.568Z,99420.28
2023-05-05T20:04:10.847Z,99426.06
2023-05-05T20:07:13.156Z,99423.78
2023-05-05T20:10:16.669Z,99420.78
2023-05-05T20:13:18.907Z,99425.62
2023-05-05T20:16:24.328Z,99421.94
2023-05-05T20:19:26.578Z,99429.44
2023-05-05T20:22:28.797Z,99430.16
2023-05-05T20:25:31.020Z,99421.63
2023-05-05T20:28:36.009Z,99416.38
2023-05-05T20:31:38.247Z,99414.28
2023-05-05T20:34:40.473Z,99419.53
2023-05-05T20:37:45.041Z,99411.81
2023-05-05T20:40:47.251Z,99416.34
2023-05-05T20:43:49.452Z,99418.66
2023-05-05T20:46:51.715Z,99409.22
2023-05-05T20:49:54.333Z,99410.06
2023-05-05T20:52:56.609Z,99410.97
2023-05-05T20:55:58.857Z,99414.03
2023-05-05T20:59:01.058Z,99419.16
2023-05-05T21:02:03.527Z,99416.28
2023-05-05T21:05:06.267Z,99409.84
2023-05-05T21:08:08.526Z,99402.06
2023-05-05T21:11:10.769Z,99405.34
2023-05-05T21:14:13.385Z,99402.50
2023-05-05T21:17:15.689Z,99401.97
2023-05-05T21:20:18.733Z,99412.22
2023-05-05T21:23:20.971Z,99405.38
2023-05-05T21:26:25.064Z,99400.72
2023-05-05T21:29:27.403Z,99390.94
2023-05-05T21:32:29.781Z,99398.84
2023-05-05T21:35:32.177Z,99392.03
2023-05-05T21:38:34.577Z,99382.78
2023-05-05T21:41:36.739Z,99390.47
2023-05-05T21:44:38.972Z,99393.31
2023-05-05T21:47:41.292Z,99384.56
2023-05-05T21:50:43.924Z,99380.19
2023-05-05T21:53:46.507Z,99376.50
2023-05-05T21:56:49.002Z,99372.53
2023-05-05T21:59:51.327Z,99369.50
2023-05-05T22:02:53.680Z,99361.44
2023-05-05T22:05:55.993Z,99360.81
2023-05-05T22:08:58.248Z,99359.41
2023-05-05T22:12:00.516Z,99365.72
2023-05-05T22:15:02.793Z,99367.72
2023-05-05T22:18:05.066Z,99365.06
2023-05-05T22:21:07.300Z,99366.00
2023-05-05T22:24:09.506Z,99369.31
2023-05-05T22:27:11.867Z,99369.00
2023-05-05T22:30:14.343Z,99365.66
2023-05-05T22:33:16.854Z,99365.44
2023-05-05T22:36:19.096Z,99368.56
2023-05-05T22:39:21.288Z,99366.16
2023-05-05T22:42:23.416Z,99368.87
2023-05-05T22:45:26.188Z,99369.69
2023-05-05T22:48:28.359Z,99371.94
2023-05-05T22:51:30.543Z,99380.09
2023-05-05T22:54:32.828Z,99381.28
2023-05-05T22:57:36.132Z,99382.25
2023-05-05T23:00:38.893Z,99379.78
2023-05-05T23:03:41.528Z,99378.97
2023-05-05T23:06:44.899Z,99380.62
2023-05-05T23:09:47.303Z,99387.16
2023-05-05T23:12:49.520Z,99382.47
2023-05-05T23:15:51.838Z,99380.03
2023-05-05T23:18:54.080Z,99380.47
2023-05-05T23:21:56.914Z,99383.56
2023-05-05T23:24:59.097Z,99376.81
2023-05-05T23:28:01.460Z,99369.37
2023-05-05T23:31:03.716Z,99372.31
2023-05-05T23:34:06.322Z,99366.66
2023-05-05T23:37:08.561Z,99375.91
2023-05-05T23:40:11.068Z,99369.34
2023-05-05T23:43:13.314Z,99361.81
2023-05-05T23:46:15.711Z,99364.50
2023-05-05T23:49:17.908Z,99363.72
2023-05-05T23:52:20.096Z,99368.84
2023-05-05T23:55:22.381Z,99369.69
2023-05-05T23:58:24.580Z,99367.41
